• Join FlightAware (Why Join?)
  • Login
  • US Flag 
12:27AM EDT


 

Airport Tracker/Info


-or-


 

Live Flight TrackerFlight Track Log ✈ SWA265 ✈ 29-Apr-2013 ✈ KABQ - KLAS

Flight Track Log - Related Links

Times and Time Zones

All times are in EDT time to prevent confusion due to time zone crossing. See the SWA265 flight status page for this flight to view local times or setup timezone preferences in your user account.

Time Position Orientation Groundspeed Altitude Reporting Facility
EDT Latitude Longitude Course Direction KTS MPH feet Rate Location/Type
08:34AM 35.0419 -106.5822 164° South 160 184 6,500  Level Albuquerque Center
08:35AM 35.0078 -106.5703 164° South 204 235 7,500 2,160 Climbing Albuquerque Center
08:36AM 34.9550 -106.5836 192° South 247 284 10,000 2,400 Climbing Albuquerque Center
08:37AM 34.9706 -106.6692 283° West 270 311 12,100 2,940 Climbing Albuquerque Center
08:38AM 35.0119 -106.7703 297° West 319 367 16,000 3,660 Climbing Albuquerque Center
08:39AM 35.0564 -106.8772 297° West 350 403 19,500 3,600 Climbing Albuquerque Center
08:40AM 35.0958 -107.0103 290° West 375 432 23,300 3,240 Climbing Albuquerque Center
08:41AM 35.1089 -107.1358 277° West 387 445 26,100 2,640 Climbing Albuquerque Center
08:42AM 35.1222 -107.2783 277° West 414 476 28,700 2,340 Climbing Albuquerque Center
08:43AM 35.1375 -107.4203 278° West 419 482 30,900 2,280 Climbing Albuquerque Center
08:44AM 35.1539 -107.5683 278° West 428 493 33,300 2,280 Climbing Albuquerque Center
08:45AM 35.1667 -107.7072 276° West 430 495 35,600 2,160 Climbing Albuquerque Center
08:46AM 35.1811 -107.8439 277° West 425 489 37,700 1,980 Climbing Albuquerque Center
08:47AM 35.1972 -108.0014 277° West 419 482 39,700 1,140 Climbing Albuquerque Center
08:48AM 35.2114 -108.1344 277° West 415 478 40,000 120 Climbing Albuquerque Center
08:49AM 35.2253 -108.2675 277° West 413 475 40,000  Level Albuquerque Center
08:50AM 35.2406 -108.4225 277° West 411 473 40,000  Level Albuquerque Center
08:51AM 35.2522 -108.5547 276° West 408 470 40,000  Level Albuquerque Center
08:52AM 35.2650 -108.6856 277° West 405 466 40,000  Level Albuquerque Center
08:53AM 35.2769 -108.8164 276° West 404 465 40,000  Level Albuquerque Center
08:54AM 35.2914 -108.9706 277° West 404 465 40,000  Level Albuquerque Center
08:55AM 35.3044 -109.1017 277° West 404 465 40,000  Level Albuquerque Center
08:56AM 35.3161 -109.2339 276° West 406 467 40,000  Level Albuquerque Center
08:57AM 35.3300 -109.3883 276° West 406 467 40,000  Level Albuquerque Center
08:58AM 35.3411 -109.5194 276° West 405 466 40,000  Level Albuquerque Center
08:59AM 35.3519 -109.6511 276° West 404 465 40,000  Level Albuquerque Center
09:00AM 35.3636 -109.7869 276° West 413 475 40,000  Level Albuquerque Center
09:01AM 35.3769 -109.9414 276° West 410 472 40,000  Level Albuquerque Center
09:02AM 35.3853 -110.0739 274° West 408 470 40,000  Level Albuquerque Center
09:03AM 35.3956 -110.2061 275° West 408 470 40,000  Level Albuquerque Center
09:04AM 35.4075 -110.3600 275° West 406 467 40,000  Level Albuquerque Center
09:05AM 35.4186 -110.4933 276° West 410 472 40,000  Level Albuquerque Center
09:06AM 35.4283 -110.6267 275° West 410 472 40,000  Level Albuquerque Center
09:07AM 35.4414 -110.7822 276° West 409 471 40,000  Level Albuquerque Center
09:08AM 35.4517 -110.9164 275° West 412 474 40,000  Level Albuquerque Center
09:09AM 35.4619 -111.0503 275° West 413 475 40,000  Level Albuquerque Center
09:10AM 35.4733 -111.2064 275° West 410 472 40,000 -900 Level Albuquerque Center
09:11AM 35.4836 -111.3411 275° West 414 476 38,300 -2,100 Descending Albuquerque Center
09:12AM 35.4942 -111.4703 276° West 412 474 35,800 -2,580 Descending Albuquerque Center
09:13AM 35.5031 -111.6081 275° West 411 473 33,200 -2,460 Descending Albuquerque Center
09:14AM 35.5128 -111.7464 275° West 410 472 30,900 -1,620 Descending Albuquerque Center
09:15AM 35.5225 -111.8825 275° West 406 467 30,000 -480 Descending Albuquerque Center
09:16AM 35.5319 -112.0158 275° West 399 459 30,000 -240 Level Albuquerque Center
09:17AM 35.5403 -112.1486 274° West 395 455 29,600 -840 Descending Albuquerque Center
09:18AM 35.5503 -112.3056 275° West 388 447 28,400 -1,440 Descending Albuquerque Center
09:19AM 35.5586 -112.4347 275° West 384 442 26,700 -1,440 Descending Albuquerque Center
09:20AM 35.5619 -112.4881 274° West 386 444 26,300 -1,020 Descending Los Angeles Center
09:21AM 35.5717 -112.6322 275° West 379 436 25,200 -1,080 Descending Los Angeles Center
09:22AM 35.5794 -112.7586 274° West 372 428 24,200 -960 Descending Los Angeles Center
09:23AM 35.5875 -112.8797 275° West 361 415 23,300 -1,020 Descending Los Angeles Center
09:24AM 35.5939 -113.0094 274° West 363 418 22,200 -960 Descending Los Angeles Center
09:25AM 35.6000 -113.1058 274° West 360 414 21,400 -960 Descending Los Angeles Center
09:26AM 35.6078 -113.2489 274° West 352 405 20,300 -720 Descending Los Angeles Center
09:27AM 35.6150 -113.3656 274° West 360 414 20,000 -180 Descending Los Angeles Center
09:28AM 35.6225 -113.4992 274° West 389 448 20,000  Level Los Angeles Center
09:29AM 35.6367 -113.6319 278° West 395 455 20,000  Level Los Angeles Center
09:30AM 35.6558 -113.7619 280° West 391 450 20,000 -480 Level Los Angeles Center
09:31AM 35.6781 -113.9183 280° West 390 449 19,100 -1,140 Descending Los Angeles Center
09:32AM 35.6953 -114.0478 279° West 387 445 17,700 -2,100 Descending Los Angeles Center
09:33AM 35.7133 -114.1733 280° West 377 434 14,900 -2,580 Descending Los Angeles Center
09:34AM 35.7322 -114.2894 281° West 374 430 12,700 -1,440 Descending Los Angeles Center
09:35AM 35.7708 -114.3975 294° West 317 365 12,000 -1,140 Descending Los Angeles Center
09:36AM 35.8356 -114.4508 326° Northwest 304 350 10,500 -1,560 Descending Los Angeles Center
09:36AM 35.8494 -114.4725 308° West 303 349 10,100 -1,140 Descending Los Angeles Center
09:37AM 35.9058 -114.5439 314° West 292 336 9,000 -1,020 Descending Los Angeles Center
09:38AM 35.9456 -114.5944 314° West 289 333 8,400 -900 Descending Los Angeles Center
09:38AM 35.9603 -114.6142 313° West 285 328 8,100 -300 Descending Los Angeles Center
09:39AM 36.0089 -114.6744 315° West 280 322 8,100  Level Los Angeles Center
09:39AM 36.0153 -114.6819 316° Northwest 280 322 8,100 -120 Level Los Angeles Center
09:40AM 36.0581 -114.7403 312° West 263 303 8,000 -120 Descending Los Angeles Center
09:40AM 36.0675 -114.7489 324° Northwest 274 315 8,000 -900 Level Los Angeles Center
09:41AM 36.0764 -114.8142 280° West 258 297 7,200 -1,200 Descending Los Angeles Center
09:41AM 36.0775 -114.8297 275° West 259 298 6,800 -1,500 Descending Los Angeles Center
09:42AM 36.0769 -114.9150 270° West 259 298 5,400 -1,320 Descending Los Angeles Center
09:43AM 36.0764 -115.0006 270° West 201 231 4,300 -1,140 Descending Los Angeles Center
09:44AM 36.0750 -115.0436 268° West 166 191 3,200 -1,200 Descending Los Angeles Center
09:44AM 36.0767 -115.0600 277° West 181 208 3,000 -600 Descending Los Angeles Center
09:45AM 36.0767 -115.0908 270° West 131 151 2,600 -600 Descending Los Angeles Center
09:45AM 36.0764 -115.1058 269° West 154 177 2,400 -600 Descending Los Angeles Center
09:47AM 36.0667 -115.1500 270° West  Level FlightAware Approximate
09:54AM 36.0801 -115.1523 270° West  Level Estimated